createdAt,value
2024-04-11T00:00:41.202Z,0.30
2024-04-11T00:03:08.560Z,0.30
2024-04-11T00:05:35.631Z,0.30
2024-04-11T00:08:02.960Z,0.30
2024-04-11T00:10:30.096Z,0.30
2024-04-11T00:12:57.179Z,0.40
2024-04-11T00:15:27.070Z,0.40
2024-04-11T00:17:54.181Z,0.40
2024-04-11T00:20:23.094Z,0.40
2024-04-11T00:22:51.695Z,0.33
2024-04-11T00:25:19.250Z,0.40
2024-04-11T00:27:46.912Z,0.40
2024-04-11T00:30:14.603Z,0.40
2024-04-11T00:32:44.802Z,0.40
2024-04-11T00:35:12.536Z,0.40
2024-04-11T00:37:39.692Z,0.40
2024-04-11T00:40:08.126Z,0.40
2024-04-11T00:42:35.648Z,0.37
2024-04-11T00:45:03.188Z,0.40
2024-04-11T00:47:31.202Z,0.40
2024-04-11T00:50:02.200Z,0.40
2024-04-11T00:52:30.458Z,0.40
2024-04-11T00:54:58.323Z,0.40
2024-04-11T00:57:25.949Z,0.40
2024-04-11T00:59:53.544Z,0.40
2024-04-11T01:02:21.209Z,0.40
2024-04-11T01:04:48.730Z,0.40
2024-04-11T01:07:18.462Z,0.40
2024-04-11T01:09:47.399Z,0.40
2024-04-11T01:12:18.052Z,0.40
2024-04-11T01:14:47.796Z,0.40
2024-04-11T01:17:17.308Z,0.40
2024-04-11T01:19:51.654Z,0.40
2024-04-11T01:22:21.422Z,0.40
2024-04-11T01:24:54.281Z,0.40
2024-04-11T01:27:22.297Z,0.40
2024-04-11T01:29:51.312Z,0.40
2024-04-11T01:32:19.324Z,0.40
2024-04-11T01:34:46.666Z,0.40
2024-04-11T01:37:14.133Z,0.40
2024-04-11T01:39:42.245Z,0.40
2024-04-11T01:42:12.768Z,0.40
2024-04-11T01:44:40.101Z,0.40
2024-04-11T01:47:07.874Z,0.40
2024-04-11T01:49:35.547Z,0.40
2024-04-11T01:52:10.978Z,0.40
2024-04-11T01:54:38.702Z,0.40
2024-04-11T01:57:06.016Z,0.37
2024-04-11T01:59:36.766Z,0.40
2024-04-11T02:02:04.131Z,0.40
2024-04-11T02:04:32.503Z,0.40
2024-04-11T02:06:59.869Z,0.40
2024-04-11T02:09:33.010Z,0.40
2024-04-11T02:12:00.405Z,0.40
2024-04-11T02:14:29.023Z,0.40
2024-04-11T02:17:00.654Z,0.40
2024-04-11T02:19:30.005Z,0.40
2024-04-11T02:21:57.179Z,0.40
2024-04-11T02:24:24.674Z,0.40
2024-04-11T02:26:54.471Z,0.40
2024-04-11T02:29:22.489Z,0.40
2024-04-11T02:31:49.808Z,0.40
2024-04-11T02:34:19.779Z,0.40
2024-04-11T02:36:49.108Z,0.40
2024-04-11T02:39:18.345Z,0.40
2024-04-11T02:41:45.834Z,0.40
2024-04-11T02:44:13.409Z,0.40
2024-04-11T02:46:43.627Z,0.40
2024-04-11T02:49:11.329Z,0.40
2024-04-11T02:51:41.122Z,0.40
2024-04-11T02:54:10.863Z,0.40
2024-04-11T02:56:38.605Z,0.40
2024-04-11T02:59:06.187Z,0.40
2024-04-11T03:01:34.258Z,0.40
2024-04-11T03:04:04.264Z,0.40
2024-04-11T03:06:34.699Z,0.40
2024-04-11T03:09:07.861Z,0.40
2024-04-11T03:11:36.800Z,0.40
2024-04-11T03:14:04.640Z,0.40
2024-04-11T03:16:32.430Z,0.40
2024-04-11T03:19:00.718Z,0.40
2024-04-11T03:21:28.349Z,0.40
2024-04-11T03:23:55.929Z,0.40
2024-04-11T03:26:26.457Z,0.40
2024-04-11T03:28:54.689Z,0.40
2024-04-11T03:31:22.493Z,0.40
2024-04-11T03:33:52.984Z,0.40
2024-04-11T03:36:21.023Z,0.37
2024-04-11T03:38:56.424Z,0.40
2024-04-11T03:41:27.451Z,0.40
2024-04-11T03:43:56.801Z,0.40
2024-04-11T03:46:25.519Z,0.40
2024-04-11T03:48:58.562Z,0.40
2024-04-11T03:51:31.440Z,0.40
2024-04-11T03:54:02.784Z,0.40
2024-04-11T03:56:33.333Z,0.40
2024-04-11T03:59:01.539Z,0.40
2024-04-11T04:01:29.587Z,0.40
2024-04-11T04:03:59.291Z,0.40
2024-04-11T04:06:27.293Z,0.40
2024-04-11T04:08:56.589Z,0.40
2024-04-11T04:11:24.294Z,0.40
2024-04-11T04:13:54.448Z,0.40
2024-04-11T04:16:21.773Z,0.40
2024-04-11T04:18:53.632Z,0.40
2024-04-11T04:21:22.280Z,0.40
2024-04-11T04:23:56.543Z,0.40
2024-04-11T04:26:27.755Z,0.40
2024-04-11T04:28:59.201Z,0.40
2024-04-11T04:31:29.804Z,0.40
2024-04-11T04:33:59.819Z,0.40
2024-04-11T04:36:28.757Z,0.40
2024-04-11T04:39:01.064Z,0.40
2024-04-11T04:41:29.791Z,0.40
2024-04-11T04:44:03.960Z,0.40
2024-04-11T04:46:33.598Z,0.40
2024-04-11T04:49:02.213Z,0.40
2024-04-11T04:51:31.216Z,0.40
2024-04-11T04:54:01.657Z,0.40
2024-04-11T04:56:30.027Z,0.40
2024-04-11T04:59:00.439Z,0.40
2024-04-11T05:01:28.268Z,0.40
2024-04-11T05:03:57.524Z,0.40
2024-04-11T05:06:25.914Z,0.40
2024-04-11T05:08:56.419Z,0.40
2024-04-11T05:11:26.435Z,0.40
2024-04-11T05:13:54.806Z,0.40
2024-04-11T05:16:24.663Z,0.40
2024-04-11T05:18:52.373Z,0.40
2024-04-11T05:21:26.914Z,0.40
2024-04-11T05:23:55.897Z,0.40
2024-04-11T05:26:27.417Z,0.40
2024-04-11T05:28:56.484Z,0.40
2024-04-11T05:31:29.879Z,0.50
2024-04-11T05:34:09.817Z,0.40
2024-04-11T05:36:41.329Z,0.40
2024-04-11T05:39:11.363Z,0.40
2024-04-11T05:41:39.076Z,0.40
2024-04-11T05:44:08.449Z,0.40
2024-04-11T05:46:39.078Z,0.40
2024-04-11T05:49:06.896Z,0.40
2024-04-11T05:51:36.508Z,0.40
2024-04-11T05:54:04.572Z,0.40
2024-04-11T05:56:31.923Z,0.40
2024-04-11T05:58:59.087Z,0.40
2024-04-11T06:01:28.648Z,0.40
2024-04-11T06:03:59.066Z,0.40
2024-04-11T06:06:26.171Z,0.40
2024-04-11T06:08:56.577Z,0.40
2024-04-11T06:11:23.912Z,0.40
2024-04-11T06:13:55.000Z,0.40
2024-04-11T06:16:22.246Z,0.40
2024-04-11T06:18:50.262Z,0.40
2024-04-11T06:21:20.943Z,0.30
2024-04-11T06:23:48.414Z,0.40
2024-04-11T06:26:16.752Z,0.40
2024-04-11T06:28:46.967Z,0.40
2024-04-11T06:31:16.575Z,0.40
2024-04-11T06:33:44.575Z,0.40
2024-04-11T06:36:13.073Z,0.40
2024-04-11T06:38:43.281Z,0.40
2024-04-11T06:41:19.484Z,0.33
2024-04-11T06:43:47.315Z,0.30
2024-04-11T06:46:14.522Z,0.40
2024-04-11T06:48:43.572Z,0.30
2024-04-11T06:51:11.212Z,0.40
2024-04-11T06:53:40.568Z,0.33
2024-04-11T06:56:12.571Z,0.40
2024-04-11T06:58:39.928Z,0.30
2024-04-11T07:01:11.083Z,0.40
2024-04-11T07:03:42.442Z,0.30
2024-04-11T07:06:12.057Z,0.30
2024-04-11T07:08:39.986Z,0.40
2024-04-11T07:11:28.873Z,0.30
2024-04-11T07:13:57.486Z,0.30
2024-04-11T07:16:34.284Z,0.30
2024-04-11T07:19:04.044Z,0.30
2024-04-11T07:21:36.655Z,0.30
2024-04-11T07:24:08.010Z,0.30
2024-04-11T07:26:40.902Z,0.30
2024-04-11T07:29:10.056Z,0.30
2024-04-11T07:31:43.280Z,0.30
2024-04-11T07:34:10.775Z,0.30
2024-04-11T07:36:42.039Z,0.40
2024-04-11T07:39:15.081Z,0.30
2024-04-11T07:41:48.610Z,0.40
2024-04-11T07:44:24.830Z,0.40
2024-04-11T07:47:05.468Z,0.30
2024-04-11T07:49:42.412Z,0.40
2024-04-11T07:52:12.885Z,0.40
2024-04-11T07:54:47.498Z,0.30
2024-04-11T07:57:21.587Z,0.40
2024-04-11T07:59:50.606Z,0.30
2024-04-11T08:02:20.177Z,0.30
2024-04-11T08:04:48.227Z,0.30
2024-04-11T08:07:15.387Z,0.30
2024-04-11T08:09:47.266Z,0.40
2024-04-11T08:12:19.223Z,0.40
2024-04-11T08:14:46.967Z,0.40
2024-04-11T08:17:15.946Z,0.30
2024-04-11T08:19:51.866Z,0.30
2024-04-11T08:22:25.137Z,0.30
2024-04-11T08:24:52.326Z,0.30
2024-04-11T08:27:23.088Z,0.30
2024-04-11T08:29:50.436Z,0.30
2024-04-11T08:32:18.410Z,0.30
2024-04-11T08:34:45.628Z,0.30
2024-04-11T08:37:13.128Z,0.30
2024-04-11T08:39:41.810Z,0.40
2024-04-11T08:42:10.663Z,0.30
2024-04-11T08:44:42.396Z,0.30
2024-04-11T08:47:10.175Z,0.30
2024-04-11T08:49:37.408Z,0.30
2024-04-11T08:52:08.178Z,0.30
2024-04-11T08:54:39.538Z,0.30
2024-04-11T08:57:09.799Z,0.30
2024-04-11T08:59:36.960Z,0.30
2024-04-11T09:02:10.526Z,0.40
2024-04-11T09:04:38.204Z,0.30
2024-04-11T09:07:06.187Z,0.30
2024-04-11T09:09:33.749Z,0.30
2024-04-11T09:12:01.962Z,0.30
2024-04-11T09:14:30.676Z,0.40
2024-04-11T09:17:06.192Z,0.30
2024-04-11T09:19:41.813Z,0.40
2024-04-11T09:22:11.457Z,0.30
2024-04-11T09:24:39.988Z,0.30
2024-04-11T09:27:09.243Z,0.37
2024-04-11T09:29:37.685Z,0.40
2024-04-11T09:32:05.740Z,0.30
2024-04-11T09:34:44.436Z,0.30
2024-04-11T09:37:17.121Z,0.30
2024-04-11T09:39:49.036Z,0.30
2024-04-11T09:42:21.388Z,0.30
2024-04-11T09:44:51.751Z,0.30
2024-04-11T09:47:21.378Z,0.30
2024-04-11T09:49:57.325Z,0.30
2024-04-11T09:52:29.125Z,0.30
2024-04-11T09:54:56.618Z,0.30
2024-04-11T09:57:25.788Z,0.40
2024-04-11T09:59:53.187Z,0.30
2024-04-11T10:02:21.446Z,0.30
2024-04-11T10:04:57.477Z,0.40
2024-04-11T10:07:27.182Z,0.30
2024-04-11T10:09:54.624Z,0.30
2024-04-11T10:12:22.083Z,0.30
2024-04-11T10:14:58.868Z,0.30
2024-04-11T10:17:30.040Z,0.30
2024-04-11T10:20:11.189Z,0.30
2024-04-11T10:22:44.571Z,0.30
2024-04-11T10:25:19.223Z,0.30
2024-04-11T10:27:48.863Z,0.30
2024-04-11T10:30:18.596Z,0.30
2024-04-11T10:32:48.215Z,0.30
2024-04-11T10:35:25.225Z,0.30
2024-04-11T10:37:52.227Z,0.30
2024-04-11T10:40:25.787Z,0.30
2024-04-11T10:43:12.911Z,0.30
2024-04-11T10:45:40.958Z,0.30
2024-04-11T10:48:10.515Z,0.30
2024-04-11T10:50:44.032Z,0.30
2024-04-11T10:53:15.935Z,0.30
2024-04-11T10:55:44.758Z,0.30
2024-04-11T10:58:15.109Z,0.30
2024-04-11T11:01:03.057Z,0.30
2024-04-11T11:03:47.422Z,0.30
2024-04-11T11:06:30.420Z,0.30
2024-04-11T11:09:12.004Z,0.30
2024-04-11T11:11:41.420Z,0.30
2024-04-11T11:14:10.035Z,0.30
2024-04-11T11:16:39.842Z,0.30
2024-04-11T11:19:09.522Z,0.30
2024-04-11T11:21:41.946Z,0.30
2024-04-11T11:24:09.288Z,0.30
2024-04-11T11:26:38.209Z,0.30
2024-04-11T11:29:08.204Z,0.30
2024-04-11T11:31:38.613Z,0.30
2024-04-11T11:34:10.751Z,0.30
2024-04-11T11:36:49.791Z,0.30
2024-04-11T11:39:26.393Z,0.30
2024-04-11T11:42:04.788Z,0.30
2024-04-11T11:44:42.434Z,0.30
2024-04-11T11:47:09.757Z,0.30
2024-04-11T11:49:38.673Z,0.30
2024-04-11T11:52:15.438Z,0.30
2024-04-11T11:54:43.019Z,0.30
2024-04-11T11:57:10.657Z,0.30
2024-04-11T11:59:40.115Z,0.30
2024-04-11T12:02:07.739Z,0.30
2024-04-11T12:04:34.843Z,0.30
2024-04-11T12:07:02.228Z,0.30
2024-04-11T12:09:44.274Z,0.30
2024-04-11T12:12:25.009Z,0.30
2024-04-11T12:14:56.398Z,0.30
2024-04-11T12:17:25.375Z,0.30
2024-04-11T12:19:53.401Z,0.30
2024-04-11T12:22:21.180Z,0.30
2024-04-11T12:24:53.714Z,0.30
2024-04-11T12:27:25.488Z,0.30
2024-04-11T12:29:52.830Z,0.30
2024-04-11T12:32:20.117Z,0.30
2024-04-11T12:34:49.565Z,0.30
2024-04-11T12:37:25.814Z,0.30
2024-04-11T12:39:56.395Z,0.30
2024-04-11T12:42:25.412Z,0.30
2024-04-11T12:44:57.286Z,0.30
2024-04-11T12:47:40.670Z,0.30
2024-04-11T12:50:14.507Z,0.30
2024-04-11T12:52:46.386Z,0.30
2024-04-11T12:55:26.300Z,0.30
2024-04-11T12:58:02.712Z,0.30
2024-04-11T13:00:46.122Z,0.30
2024-04-11T13:03:20.687Z,0.30
2024-04-11T13:05:52.999Z,0.30
2024-04-11T13:08:29.720Z,0.30
2024-04-11T13:11:09.210Z,0.30
2024-04-11T13:13:42.158Z,0.30
2024-04-11T13:16:12.864Z,0.30
2024-04-11T13:18:40.923Z,0.30
2024-04-11T13:21:33.156Z,0.30
2024-04-11T13:24:01.374Z,0.30
2024-04-11T13:26:36.872Z,0.30
2024-04-11T13:29:08.974Z,0.30
2024-04-11T13:31:36.069Z,0.30
2024-04-11T13:34:08.532Z,0.30
2024-04-11T13:36:35.861Z,0.30
2024-04-11T13:39:03.349Z,0.30
2024-04-11T13:41:50.617Z,0.30
2024-04-11T13:44:27.342Z,0.30
2024-04-11T13:46:55.449Z,0.30
2024-04-11T13:49:26.611Z,0.30
2024-04-11T13:51:56.841Z,0.30
2024-04-11T13:54:25.536Z,0.30
2024-04-11T13:57:01.632Z,0.30
2024-04-11T13:59:32.521Z,0.30
2024-04-11T14:02:10.720Z,0.30
2024-04-11T14:05:00.520Z,0.30
2024-04-11T14:07:29.191Z,0.30
2024-04-11T14:10:00.820Z,0.30
2024-04-11T14:12:30.619Z,0.30
2024-04-11T14:14:58.365Z,0.30
2024-04-11T14:17:29.670Z,0.30
2024-04-11T14:20:17.137Z,0.30
2024-04-11T14:22:51.065Z,0.30
2024-04-11T14:25:22.457Z,0.30
2024-04-11T14:27:55.591Z,0.30
2024-04-11T14:30:36.042Z,0.30
2024-04-11T14:33:11.032Z,0.30
2024-04-11T14:36:17.113Z,0.20
2024-04-11T14:38:49.961Z,0.30
2024-04-11T14:41:19.244Z,0.30
2024-04-11T14:43:56.942Z,0.20
2024-04-11T14:46:26.012Z,0.20
2024-04-11T14:48:54.622Z,0.20
2024-04-11T14:51:28.102Z,0.30
2024-04-11T14:53:55.797Z,0.20
2024-04-11T14:56:41.742Z,0.30
2024-04-11T14:59:12.095Z,0.20
2024-04-11T15:01:45.525Z,0.20
2024-04-11T15:04:21.711Z,0.20
2024-04-11T15:06:52.930Z,0.30
2024-04-11T15:09:30.707Z,0.30
2024-04-11T15:12:05.241Z,0.30
2024-04-11T15:14:35.706Z,0.30
2024-04-11T15:17:21.453Z,0.20
2024-04-11T15:19:53.041Z,0.20
2024-04-11T15:22:27.069Z,0.20
2024-04-11T15:24:56.218Z,0.30
2024-04-11T15:27:31.833Z,0.30
2024-04-11T15:30:06.106Z,0.30
2024-04-11T15:32:39.005Z,0.30
2024-04-11T15:35:11.699Z,0.30
2024-04-11T15:37:56.715Z,0.30
2024-04-11T15:40:25.257Z,0.30
2024-04-11T15:42:57.546Z,0.30
2024-04-11T15:45:32.248Z,0.30
2024-04-11T15:48:02.459Z,0.30
2024-04-11T15:50:38.221Z,0.30
2024-04-11T15:53:09.681Z,0.30
2024-04-11T15:55:49.191Z,0.30
2024-04-11T15:58:17.954Z,0.30
2024-04-11T16:00:53.974Z,0.30
2024-04-11T16:03:22.418Z,0.30
2024-04-11T16:05:54.439Z,0.30
2024-04-11T16:08:25.311Z,0.30
2024-04-11T16:11:01.789Z,0.30
2024-04-11T16:13:38.692Z,0.30
2024-04-11T16:16:11.336Z,0.30
2024-04-11T16:18:41.312Z,0.30
2024-04-11T16:21:16.310Z,0.30
2024-04-11T16:23:58.325Z,0.30
2024-04-11T16:26:28.544Z,0.22
2024-04-11T16:28:57.413Z,0.30
2024-04-11T16:31:27.713Z,0.30
2024-04-11T16:33:59.350Z,0.30
2024-04-11T16:36:30.202Z,0.30
2024-04-11T16:38:59.302Z,0.20
2024-04-11T16:41:38.887Z,0.30
2024-04-11T16:44:13.310Z,0.30
2024-04-11T16:46:43.100Z,0.20
2024-04-11T16:49:16.162Z,0.20
2024-04-11T16:51:43.939Z,0.30
2024-04-11T16:54:20.884Z,0.20
2024-04-11T16:56:51.444Z,0.20
2024-04-11T16:59:33.126Z,0.23
2024-04-11T17:02:10.837Z,0.30
2024-04-11T17:04:40.515Z,0.30
2024-04-11T17:07:25.654Z,0.30
2024-04-11T17:09:56.679Z,0.30
2024-04-11T17:12:25.118Z,0.30
2024-04-11T17:14:56.366Z,0.30
2024-04-11T17:17:51.059Z,0.30
2024-04-11T17:20:21.913Z,0.30
2024-04-11T17:22:51.701Z,0.30
2024-04-11T17:25:19.426Z,0.30
2024-04-11T17:27:51.526Z,0.30
2024-04-11T17:30:40.012Z,0.30
2024-04-11T17:33:32.415Z,0.30
2024-04-11T17:36:21.959Z,0.20
2024-04-11T17:39:24.036Z,0.30
2024-04-11T17:42:14.813Z,0.20
2024-04-11T17:44:49.796Z,0.30
2024-04-11T17:47:32.938Z,0.30
2024-04-11T17:50:03.837Z,0.30
2024-04-11T17:52:42.358Z,0.20
2024-04-11T17:55:33.983Z,0.30
2024-04-11T17:58:10.236Z,0.30
2024-04-11T18:00:39.898Z,0.23
2024-04-11T18:03:10.992Z,0.30
2024-04-11T18:05:42.194Z,0.30
2024-04-11T18:08:10.874Z,0.20
2024-04-11T18:10:39.781Z,0.30
2024-04-11T18:13:08.192Z,0.30
2024-04-11T18:15:41.350Z,0.30
2024-04-11T18:18:18.799Z,0.30
2024-04-11T18:20:53.322Z,0.30
2024-04-11T18:23:25.443Z,0.30
2024-04-11T18:25:58.141Z,0.30
2024-04-11T18:28:31.118Z,0.30
2024-04-11T18:31:07.472Z,0.23
2024-04-11T18:33:39.228Z,0.30
2024-04-11T18:36:16.642Z,0.30
2024-04-11T18:38:45.569Z,0.20
2024-04-11T18:41:13.531Z,0.30
2024-04-11T18:43:45.375Z,0.20
2024-04-11T18:46:20.950Z,0.30
2024-04-11T18:48:52.389Z,0.20
2024-04-11T18:51:24.847Z,0.30
2024-04-11T18:53:52.709Z,0.30
2024-04-11T18:56:32.813Z,0.30
2024-04-11T18:59:14.463Z,0.30
2024-04-11T19:01:42.740Z,0.30
2024-04-11T19:04:21.305Z,0.30
2024-04-11T19:06:56.511Z,0.30
2024-04-11T19:09:29.885Z,0.30
2024-04-11T19:11:57.850Z,0.30
2024-04-11T19:14:30.429Z,0.30
2024-04-11T19:17:02.149Z,0.30
2024-04-11T19:19:33.310Z,0.30
2024-04-11T19:22:03.813Z,0.30
2024-04-11T19:24:31.144Z,0.30
2024-04-11T19:27:09.999Z,0.30
2024-04-11T19:29:38.920Z,0.30
2024-04-11T19:32:07.093Z,0.30
2024-04-11T19:34:34.292Z,0.30
2024-04-11T19:37:07.269Z,0.30
2024-04-11T19:39:44.209Z,0.30
2024-04-11T19:42:19.619Z,0.30
2024-04-11T19:44:48.748Z,0.30
2024-04-11T19:47:21.009Z,0.30
2024-04-11T19:50:07.514Z,0.30
2024-04-11T19:52:38.063Z,0.30
2024-04-11T19:55:21.960Z,0.30
2024-04-11T19:57:50.431Z,0.30
2024-04-11T20:00:49.319Z,0.30
2024-04-11T20:03:18.026Z,0.30
2024-04-11T20:06:00.503Z,0.30
2024-04-11T20:08:32.599Z,0.30
2024-04-11T20:11:20.062Z,0.30
2024-04-11T20:13:48.281Z,0.30
2024-04-11T20:16:24.191Z,0.30
2024-04-11T20:18:56.967Z,0.30
2024-04-11T20:21:25.517Z,0.30
2024-04-11T20:23:58.772Z,0.30
2024-04-11T20:26:32.474Z,0.30
2024-04-11T20:29:05.105Z,0.30
2024-04-11T20:31:34.535Z,0.30
2024-04-11T20:34:08.272Z,0.30
2024-04-11T20:36:39.008Z,0.30
2024-04-11T20:39:14.731Z,0.30
2024-04-11T20:41:52.382Z,0.30
2024-04-11T20:44:24.459Z,0.30
2024-04-11T20:47:14.857Z,0.30
2024-04-11T20:49:45.150Z,0.30
2024-04-11T20:52:32.352Z,0.30
2024-04-11T20:55:21.492Z,0.30
2024-04-11T20:58:07.082Z,0.30
2024-04-11T21:00:53.081Z,0.30
2024-04-11T21:03:38.766Z,0.30
2024-04-11T21:06:25.077Z,0.30
2024-04-11T21:09:11.016Z,0.30
2024-04-11T21:11:59.919Z,0.30
2024-04-11T21:14:46.134Z,0.30
2024-04-11T21:17:32.750Z,0.30
2024-04-11T21:20:18.768Z,0.30
2024-04-11T21:23:04.562Z,0.30
2024-04-11T21:25:50.276Z,0.30
2024-04-11T21:28:39.212Z,0.30
2024-04-11T21:31:25.250Z,0.30
2024-04-11T21:33:56.138Z,0.30
2024-04-11T21:36:25.820Z,0.30
2024-04-11T21:38:56.887Z,0.30
2024-04-11T21:41:30.736Z,0.30
2024-04-11T21:44:00.974Z,0.30
2024-04-11T21:46:36.464Z,0.30
2024-04-11T21:49:06.352Z,0.30
2024-04-11T21:51:36.865Z,0.30
2024-04-11T21:54:09.570Z,0.30
2024-04-11T21:56:41.965Z,0.30
2024-04-11T21:59:17.393Z,0.30
2024-04-11T22:01:45.832Z,0.30
2024-04-11T22:04:14.681Z,0.30
2024-04-11T22:06:44.812Z,0.30
2024-04-11T22:09:17.676Z,0.30
2024-04-11T22:11:48.463Z,0.30
2024-04-11T22:14:32.726Z,0.30
2024-04-11T22:17:07.330Z,0.30
2024-04-11T22:19:35.492Z,0.30
2024-04-11T22:22:13.986Z,0.30
2024-04-11T22:24:48.405Z,0.30
2024-04-11T22:27:16.281Z,0.30
2024-04-11T22:29:55.002Z,0.30
2024-04-11T22:32:25.201Z,0.30
2024-04-11T22:34:54.182Z,0.30
2024-04-11T22:37:25.031Z,0.30
2024-04-11T22:39:52.812Z,0.30
2024-04-11T22:42:20.806Z,0.30
2024-04-11T22:44:51.767Z,0.30
2024-04-11T22:47:19.810Z,0.30
2024-04-11T22:49:48.143Z,0.30
2024-04-11T22:52:33.619Z,0.30
2024-04-11T22:55:08.445Z,0.30
2024-04-11T22:57:37.489Z,0.30
2024-04-11T23:00:29.313Z,0.30
2024-04-11T23:03:01.378Z,0.30
2024-04-11T23:05:29.332Z,0.30
2024-04-11T23:08:00.116Z,0.30
2024-04-11T23:10:41.385Z,0.30
2024-04-11T23:13:17.387Z,0.30
2024-04-11T23:16:02.339Z,0.30
2024-04-11T23:18:43.645Z,0.30
2024-04-11T23:21:12.203Z,0.30
2024-04-11T23:23:40.214Z,0.30
2024-04-11T23:26:16.799Z,0.30
2024-04-11T23:28:47.292Z,0.30
2024-04-11T23:31:18.509Z,0.30
2024-04-11T23:33:57.542Z,0.30
2024-04-11T23:36:28.920Z,0.30
2024-04-11T23:39:00.470Z,0.30
2024-04-11T23:41:36.075Z,0.30
2024-04-11T23:44:04.632Z,0.30
2024-04-11T23:46:36.311Z,0.30
2024-04-11T23:49:08.998Z,0.30
2024-04-11T23:51:50.709Z,0.30
2024-04-11T23:54:23.491Z,0.30
2024-04-11T23:57:01.664Z,0.30
2024-04-11T23:59:39.629Z,0.30
